Tubbergen, Netherlands
Current Conditions -  °F | °C
As of 8:20 AM on Saturday 29 Nov 2014 (Local Time) from EDDG Reporting Station
Broken Clouds Broken Clouds  
Wind Chill: 29°   Ceiling: 1200
Heat Index: 36°   Visibility: 6mi
Dew Point: 32°   Wind: 8mph
Humidity: 87%   Direction: 90°E
Pressure: 30"   Gusts: NA
Location:  52.41°N, 6.78°E
Report Text: EDDG 290720Z 09007KT 9000 BKN012 02/00 Q1016 NOSIG
Loading
Personal Weather Stations






























Interactive Weather Map New forecast layout! Learn more

10-Day Weather Forecast

Advertisements
Track Severe Weather on mobile